Strona główna
METAR-TAF:

METAR-TAF

Lotnisko :

Lewis University Airport

Romeoville, Illinois, Stany Zjednoczone

Szerokość geograficzna: 41-36-30N, Długość geograficzna: 088-05-39W, wysokość: 205 m

Aktualna obserwacja pogody

Raport powstał 38 minut temu, godzina 18:35 UTC
Wiatr 3 kt od zachód
Temperatura -4°C
Wilgotność 74%
Ciśnienie 1036 hPa
Widzialność: 16.1 km
Zachmurzenie całkowite na wysokości 4900 ft

METAR: KLOT 201835Z AUTO 26003KT 10SM OVC049 M04/M08 A3060 RMK AO2 T10381079

czas: 13:13 (19:13 UTC)


TAF: brakujący

Obserwacja i prognoza pogody dla ponad 4000 lotnisk (raport METAR i TAF).

Dostępne stacje oznaczono żółtymi i czerwonymi punktami na mapie.

Najedź kursorem aby zobaczyć nazwę stacji.

Kliknij aby zobaczyć obserwacje i prognozy pogody.

Aby zmienić mapę: kliknij na zielony przycisk z czarnym krzyżykiem, aby powiększyć; na zielony przycisk z myślnikiem, aby pomniejszyć; na zielone strzałki, aby przejść do map sąsiednich.


METAR-TAF: